createdAt,value
2023-03-12T00:02:24.130Z,3.70
2023-03-12T00:04:51.896Z,4.57
2023-03-12T00:07:19.591Z,4.50
2023-03-12T00:09:48.653Z,5.35
2023-03-12T00:12:16.341Z,4.82
2023-03-12T00:14:44.038Z,5.00
2023-03-12T00:17:11.708Z,4.90
2023-03-12T00:19:39.387Z,4.53
2023-03-12T00:22:07.146Z,3.95
2023-03-12T00:24:34.859Z,4.18
2023-03-12T00:27:07.882Z,4.40
2023-03-12T00:29:36.504Z,4.43
2023-03-12T00:32:04.227Z,4.90
2023-03-12T00:34:32.034Z,5.05
2023-03-12T00:36:59.761Z,4.93
2023-03-12T00:39:27.640Z,4.90
2023-03-12T00:41:55.438Z,4.30
2023-03-12T00:44:24.556Z,4.47
2023-03-12T00:46:52.304Z,4.38
2023-03-12T00:49:20.182Z,4.80
2023-03-12T00:51:47.951Z,5.45
2023-03-12T00:54:15.692Z,5.82
2023-03-12T00:56:43.368Z,5.78
2023-03-12T00:59:11.103Z,5.50
2023-03-12T01:01:40.263Z,6.35
2023-03-12T01:04:08.062Z,6.20
2023-03-12T01:06:36.012Z,6.53
2023-03-12T01:09:05.194Z,6.18
2023-03-12T01:11:33.977Z,6.45
2023-03-12T01:14:02.861Z,5.90
2023-03-12T01:16:31.820Z,5.82
2023-03-12T01:19:03.181Z,6.65
2023-03-12T01:21:31.756Z,6.80
2023-03-12T01:24:00.068Z,6.65
2023-03-12T01:26:28.149Z,7.85
2023-03-12T01:28:55.822Z,6.97
2023-03-12T01:31:23.778Z,7.28
2023-03-12T01:33:52.750Z,7.55
2023-03-12T01:36:24.117Z,7.25
2023-03-12T01:38:52.676Z,7.43
2023-03-12T01:41:21.036Z,7.57
2023-03-12T01:43:48.752Z,7.80
2023-03-12T01:46:30.818Z,7.43
2023-03-12T01:49:02.847Z,8.32
2023-03-12T01:51:36.360Z,7.93
2023-03-12T01:54:08.648Z,7.53
2023-03-12T01:56:38.870Z,8.43
2023-03-12T01:59:11.888Z,8.32
2023-03-12T02:04:08.350Z,8.13
2023-03-12T02:06:43.790Z,7.75
2023-03-12T02:09:12.659Z,8.23
2023-03-12T02:11:40.484Z,8.68
2023-03-12T02:14:08.174Z,8.68
2023-03-12T02:16:36.094Z,8.00
2023-03-12T02:19:09.751Z,8.43
2023-03-12T02:21:40.590Z,8.30
2023-03-12T02:24:15.915Z,8.18
2023-03-12T02:26:45.241Z,6.35
2023-03-12T02:29:13.759Z,6.10
2023-03-12T02:31:45.352Z,5.70
2023-03-12T02:34:13.309Z,5.88
2023-03-12T02:36:41.095Z,6.03
2023-03-12T02:39:08.915Z,5.45
2023-03-12T02:41:40.712Z,5.45
2023-03-12T02:44:14.112Z,6.47
2023-03-12T02:46:43.864Z,6.68
2023-03-12T02:49:13.330Z,6.38
2023-03-12T02:51:41.647Z,6.60
2023-03-12T02:54:10.315Z,6.35
2023-03-12T02:56:38.739Z,6.88
2023-03-12T02:59:07.325Z,6.60
2023-03-12T03:01:36.834Z,6.72
2023-03-12T03:04:06.733Z,7.20
2023-03-12T03:06:35.496Z,6.97
2023-03-12T03:09:03.640Z,7.68
2023-03-12T03:11:31.395Z,7.15
2023-03-12T03:13:59.249Z,7.80
2023-03-12T03:16:27.184Z,7.88
2023-03-12T03:18:56.290Z,8.70
2023-03-12T03:21:24.020Z,7.63
2023-03-12T03:23:52.683Z,7.28
2023-03-12T03:26:24.815Z,7.38
2023-03-12T03:28:53.003Z,6.55
2023-03-12T03:31:21.317Z,6.63
2023-03-12T03:33:49.957Z,6.28
2023-03-12T03:36:19.271Z,6.93
2023-03-12T03:38:49.465Z,6.82
2023-03-12T03:41:18.194Z,6.30
2023-03-12T03:43:45.921Z,6.32
2023-03-12T03:46:14.617Z,6.70
2023-03-12T03:48:43.077Z,6.45
2023-03-12T03:51:11.605Z,7.68
2023-03-12T03:53:41.097Z,6.93
2023-03-12T03:56:10.831Z,7.47
2023-03-12T03:58:39.148Z,6.80
2023-03-12T04:01:07.371Z,7.93
2023-03-12T04:03:35.793Z,7.00
2023-03-12T04:06:06.506Z,7.25
2023-03-12T04:08:35.635Z,8.00
2023-03-12T04:11:09.939Z,7.40
2023-03-12T04:13:37.998Z,7.03
2023-03-12T04:16:06.384Z,7.88
2023-03-12T04:18:36.032Z,7.10
2023-03-12T04:21:03.848Z,7.50
2023-03-12T04:23:31.625Z,7.80
2023-03-12T04:25:59.398Z,7.35
2023-03-12T04:28:28.641Z,8.13
2023-03-12T04:30:57.009Z,7.32
2023-03-12T04:33:24.709Z,7.28
2023-03-12T04:35:53.137Z,8.02
2023-03-12T04:38:21.607Z,7.50
2023-03-12T04:40:57.949Z,8.27
2023-03-12T04:43:25.683Z,7.65
2023-03-12T04:45:55.058Z,7.78
2023-03-12T04:48:23.017Z,7.32
2023-03-12T04:50:51.227Z,6.88
2023-03-12T04:53:19.206Z,6.47
2023-03-12T04:55:47.050Z,6.15
2023-03-12T04:58:14.885Z,6.70
2023-03-12T05:00:43.452Z,7.45
2023-03-12T05:03:13.762Z,7.40
2023-03-12T05:05:41.615Z,7.78
2023-03-12T05:08:09.513Z,7.40
2023-03-12T05:10:37.256Z,7.70
2023-03-12T05:13:05.007Z,8.27
2023-03-12T05:15:32.747Z,8.10
2023-03-12T05:18:00.449Z,7.10
2023-03-12T05:20:29.482Z,8.27
2023-03-12T05:22:57.153Z,7.50
2023-03-12T05:25:24.858Z,8.35
2023-03-12T05:27:52.604Z,7.35
2023-03-12T05:30:20.480Z,7.75
2023-03-12T05:32:48.305Z,7.57
2023-03-12T05:35:16.418Z,7.68
2023-03-12T05:37:45.451Z,7.63
2023-03-12T05:40:14.342Z,7.80
2023-03-12T05:42:42.189Z,7.65
2023-03-12T05:45:11.033Z,8.70
2023-03-12T05:47:38.868Z,8.40
2023-03-12T05:50:07.343Z,8.30
2023-03-12T05:52:35.198Z,7.72
2023-03-12T05:55:04.841Z,7.28
2023-03-12T05:57:32.839Z,7.32
2023-03-12T06:00:00.558Z,7.07
2023-03-12T06:02:28.369Z,6.88
2023-03-12T06:04:58.329Z,6.68
2023-03-12T06:07:26.183Z,6.63
2023-03-12T06:09:53.948Z,7.22
2023-03-12T06:12:23.148Z,7.25
2023-03-12T06:14:50.887Z,15.32
2023-03-12T06:17:18.584Z,9.38
2023-03-12T06:19:46.288Z,7.68
2023-03-12T06:22:14.086Z,6.57
2023-03-12T06:24:42.594Z,6.43
2023-03-12T06:27:10.349Z,5.95
2023-03-12T06:29:39.468Z,6.55
2023-03-12T06:32:07.868Z,6.40
2023-03-12T06:34:35.993Z,6.40
2023-03-12T06:37:03.843Z,6.20
2023-03-12T06:39:31.560Z,7.53
2023-03-12T06:41:59.278Z,18.65
2023-03-12T06:44:27.006Z,14.40
2023-03-12T06:46:56.480Z,11.90
2023-03-12T06:49:24.460Z,7.65
2023-03-12T06:51:52.258Z,7.72
2023-03-12T06:54:19.938Z,8.43
2023-03-12T06:56:47.635Z,7.95
2023-03-12T06:59:15.421Z,8.43
2023-03-12T07:01:43.107Z,7.05
2023-03-12T07:04:12.183Z,5.97
2023-03-12T07:06:40.025Z,7.13
2023-03-12T07:09:08.046Z,7.60
2023-03-12T07:11:35.762Z,6.53
2023-03-12T07:14:03.483Z,7.35
2023-03-12T07:16:31.400Z,7.10
2023-03-12T07:18:59.187Z,6.95
2023-03-12T07:21:28.595Z,7.07
2023-03-12T07:23:56.868Z,6.97
2023-03-12T07:26:24.908Z,8.80
2023-03-12T07:28:53.194Z,8.07
2023-03-12T07:31:21.148Z,9.07
2023-03-12T07:33:49.012Z,9.27
2023-03-12T07:36:17.891Z,8.52
2023-03-12T07:38:47.119Z,8.65
2023-03-12T07:41:14.891Z,10.50
2023-03-12T07:43:42.622Z,8.15
2023-03-12T07:46:10.407Z,7.88
2023-03-12T07:48:38.672Z,8.15
2023-03-12T07:51:07.243Z,7.47
2023-03-12T07:53:35.057Z,8.40
2023-03-12T07:56:04.200Z,9.18
2023-03-12T07:58:32.240Z,9.98
2023-03-12T08:01:00.128Z,8.52
2023-03-12T08:03:28.011Z,9.27
2023-03-12T08:06:02.222Z,8.82
2023-03-12T08:08:31.338Z,8.98
2023-03-12T08:10:59.317Z,8.70
2023-03-12T08:13:28.551Z,7.57
2023-03-12T08:15:56.475Z,7.03
2023-03-12T08:18:24.863Z,8.23
2023-03-12T08:20:53.815Z,7.93
2023-03-12T08:23:22.771Z,8.70
2023-03-12T08:25:52.146Z,8.10
2023-03-12T08:28:21.152Z,8.65
2023-03-12T08:30:52.216Z,8.55
2023-03-12T08:33:20.863Z,9.10
2023-03-12T08:35:49.767Z,9.07
2023-03-12T08:38:17.858Z,8.93
2023-03-12T08:40:45.682Z,8.45
2023-03-12T08:43:13.725Z,9.90
2023-03-12T08:45:41.656Z,8.65
2023-03-12T08:48:10.790Z,10.23
2023-03-12T08:50:38.518Z,13.80
2023-03-12T08:53:06.305Z,20.45
2023-03-12T08:55:34.074Z,13.30
2023-03-12T08:58:01.836Z,10.25
2023-03-12T09:00:29.561Z,11.05
2023-03-12T09:02:58.272Z,10.18
2023-03-12T09:05:30.051Z,10.73
2023-03-12T09:07:57.869Z,11.32
2023-03-12T09:10:30.272Z,10.07
2023-03-12T09:15:26.107Z,10.40
2023-03-12T09:17:54.100Z,11.32
2023-03-12T09:20:22.126Z,11.18
2023-03-12T09:22:51.247Z,12.07
2023-03-12T09:25:19.140Z,11.95
2023-03-12T09:27:48.561Z,11.15
2023-03-12T09:30:18.332Z,13.15
2023-03-12T09:32:46.539Z,11.63
2023-03-12T09:35:15.607Z,12.85
2023-03-12T09:37:43.609Z,12.90
2023-03-12T09:40:17.905Z,13.35
2023-03-12T09:42:48.865Z,12.55
2023-03-12T09:45:21.262Z,14.30
2023-03-12T09:47:51.406Z,12.55
2023-03-12T09:50:26.269Z,12.45
2023-03-12T09:52:59.684Z,13.40
2023-03-12T09:55:32.639Z,12.75
2023-03-12T10:00:32.694Z,13.07
2023-03-12T10:03:29.245Z,13.27
2023-03-12T10:06:07.506Z,11.98
2023-03-12T10:08:47.545Z,12.55
2023-03-12T10:11:28.602Z,13.52
2023-03-12T10:14:23.846Z,13.60
2023-03-12T10:17:02.118Z,13.63
2023-03-12T10:19:45.585Z,13.70
2023-03-12T10:22:26.566Z,12.98
2023-03-12T10:25:01.954Z,11.98
2023-03-12T10:27:35.692Z,12.43
2023-03-12T10:30:04.794Z,13.10
2023-03-12T10:32:40.474Z,12.55
2023-03-12T10:35:18.895Z,11.50
2023-03-12T10:37:50.172Z,11.40
2023-03-12T10:40:20.044Z,12.68
2023-03-12T10:42:49.680Z,12.88
2023-03-12T10:45:30.719Z,14.07
2023-03-12T10:48:01.678Z,13.30
2023-03-12T10:50:30.592Z,13.40
2023-03-12T10:53:20.079Z,11.73
2023-03-12T10:56:06.435Z,11.95
2023-03-12T10:58:37.960Z,13.05
2023-03-12T11:01:13.340Z,16.05
2023-03-12T11:03:41.106Z,11.75
2023-03-12T11:06:15.595Z,12.20
2023-03-12T11:08:43.554Z,12.35
2023-03-12T11:11:11.552Z,10.48
2023-03-12T11:13:42.514Z,11.65
2023-03-12T11:16:26.910Z,11.93
2023-03-12T11:19:00.036Z,11.40
2023-03-12T11:21:28.322Z,12.15
2023-03-12T11:24:10.222Z,13.00
2023-03-12T11:26:44.251Z,12.40
2023-03-12T11:29:23.913Z,11.60
2023-03-12T11:32:00.358Z,11.68
2023-03-12T11:34:31.547Z,10.18
2023-03-12T11:37:08.986Z,10.20
2023-03-12T11:39:50.206Z,9.75
2023-03-12T11:42:30.542Z,10.30
2023-03-12T11:45:07.080Z,9.95
2023-03-12T11:47:58.461Z,9.65
2023-03-12T11:50:36.533Z,9.00
2023-03-12T11:53:35.353Z,8.63
2023-03-12T11:56:14.579Z,8.95
2023-03-12T11:59:02.476Z,9.65
2023-03-12T12:01:44.342Z,7.65
2023-03-12T12:04:37.484Z,7.78
2023-03-12T12:07:12.846Z,7.55
2023-03-12T12:09:48.448Z,8.07
2023-03-12T12:12:28.650Z,7.53
2023-03-12T12:15:08.156Z,8.05
2023-03-12T12:17:53.004Z,7.28
2023-03-12T12:20:34.580Z,8.13
2023-03-12T12:23:17.415Z,7.82
2023-03-12T12:28:35.802Z,6.10
2023-03-12T12:31:19.507Z,4.88
2023-03-12T12:34:03.865Z,4.95
2023-03-12T12:36:35.783Z,4.40
2023-03-12T12:39:11.058Z,5.10
2023-03-12T12:41:43.053Z,4.30
2023-03-12T12:44:15.038Z,3.88
2023-03-12T12:46:46.376Z,3.72
2023-03-12T12:49:22.337Z,3.58
2023-03-12T12:51:53.688Z,2.70
2023-03-12T12:54:28.563Z,2.85
2023-03-12T12:57:03.548Z,4.55
2023-03-12T12:59:38.350Z,5.07
2023-03-12T13:02:18.340Z,6.53
2023-03-12T13:04:48.959Z,3.15
2023-03-12T13:07:35.510Z,6.82
2023-03-12T13:10:08.114Z,6.65
2023-03-12T13:12:44.040Z,4.13
2023-03-12T13:15:45.208Z,3.60
2023-03-12T13:18:24.517Z,2.95
2023-03-12T13:21:18.126Z,2.92
2023-03-12T13:23:58.749Z,2.97
2023-03-12T13:26:32.204Z,2.92
2023-03-12T13:29:14.440Z,2.85
2023-03-12T13:31:43.446Z,3.17
2023-03-12T13:34:33.524Z,2.85
2023-03-12T13:37:04.390Z,3.03
2023-03-12T13:39:35.036Z,2.78
2023-03-12T13:42:23.424Z,2.83
2023-03-12T13:44:52.534Z,3.15
2023-03-12T13:47:24.221Z,3.80
2023-03-12T13:49:56.037Z,3.10
2023-03-12T13:52:27.431Z,2.57
2023-03-12T13:55:01.744Z,3.10
2023-03-12T13:57:40.147Z,3.17
2023-03-12T14:00:16.684Z,3.25
2023-03-12T14:02:49.441Z,3.35
2023-03-12T14:05:19.812Z,2.85
2023-03-12T14:08:09.741Z,3.00
2023-03-12T14:10:49.400Z,3.30
2023-03-12T14:13:45.321Z,2.72
2023-03-12T14:16:23.916Z,3.17
2023-03-12T14:18:53.736Z,3.78
2023-03-12T14:21:24.769Z,3.47
2023-03-12T14:23:57.310Z,3.08
2023-03-12T14:26:28.436Z,2.80
2023-03-12T14:29:01.553Z,3.00
2023-03-12T14:31:31.706Z,2.85
2023-03-12T14:34:05.175Z,3.53
2023-03-12T14:36:39.948Z,3.28
2023-03-12T14:39:20.251Z,3.05
2023-03-12T14:41:52.957Z,2.85
2023-03-12T14:46:58.014Z,2.97
2023-03-12T14:49:25.927Z,3.25
2023-03-12T14:51:54.795Z,3.30
2023-03-12T14:54:26.686Z,3.28
2023-03-12T14:56:54.646Z,2.85
2023-03-12T14:59:26.670Z,2.92
2023-03-12T15:02:00.347Z,2.58
2023-03-12T15:04:30.798Z,2.78
2023-03-12T15:07:03.293Z,2.75
2023-03-12T15:09:36.057Z,3.47
2023-03-12T15:14:37.131Z,2.35
2023-03-12T15:17:06.412Z,2.90
2023-03-12T15:19:39.514Z,2.83
2023-03-12T15:22:12.714Z,2.33
2023-03-12T15:24:41.981Z,2.90
2023-03-12T15:27:31.286Z,2.45
2023-03-12T15:30:00.645Z,3.28
2023-03-12T15:32:31.713Z,2.80
2023-03-12T15:35:00.087Z,3.22
2023-03-12T15:37:32.804Z,2.60
2023-03-12T15:40:06.676Z,2.80
2023-03-12T15:42:41.215Z,2.85
2023-03-12T15:45:19.635Z,3.15
2023-03-12T15:47:48.615Z,2.78
2023-03-12T15:50:23.188Z,2.95
2023-03-12T15:53:02.555Z,3.58
2023-03-12T15:55:33.240Z,2.90
2023-03-12T15:58:01.740Z,2.60
2023-03-12T16:00:31.995Z,3.38
2023-03-12T16:03:01.862Z,2.55
2023-03-12T16:05:33.235Z,3.50
2023-03-12T16:08:02.856Z,3.55
2023-03-12T16:10:37.949Z,3.38
2023-03-12T16:13:07.589Z,3.08
2023-03-12T16:15:38.769Z,3.05
2023-03-12T16:18:12.511Z,2.60
2023-03-12T16:20:40.537Z,4.30
2023-03-12T16:23:08.348Z,4.50
2023-03-12T16:25:37.751Z,3.38
2023-03-12T16:28:07.516Z,3.30
2023-03-12T16:30:37.397Z,2.72
2023-03-12T16:33:09.191Z,3.30
2023-03-12T16:35:37.510Z,2.95
2023-03-12T16:38:05.573Z,2.60
2023-03-12T16:40:35.761Z,2.90
2023-03-12T16:43:07.088Z,2.67
2023-03-12T16:45:37.509Z,2.83
2023-03-12T16:48:07.408Z,3.58
2023-03-12T16:50:35.273Z,2.63
2023-03-12T16:53:04.645Z,4.28
2023-03-12T16:55:44.059Z,4.05
2023-03-12T16:58:16.529Z,2.63
2023-03-12T17:00:45.242Z,3.78
2023-03-12T17:03:28.433Z,3.63
2023-03-12T17:05:56.557Z,3.90
2023-03-12T17:08:24.384Z,4.00
2023-03-12T17:10:52.943Z,3.05
2023-03-12T17:13:25.133Z,3.55
2023-03-12T17:15:53.772Z,2.65
2023-03-12T17:18:22.332Z,3.13
2023-03-12T17:20:51.748Z,2.72
2023-03-12T17:23:19.966Z,3.45
2023-03-12T17:25:48.070Z,2.90
2023-03-12T17:28:16.286Z,3.15
2023-03-12T17:30:47.315Z,3.13
2023-03-12T17:33:19.929Z,3.00
2023-03-12T17:35:47.860Z,3.00
2023-03-12T17:38:15.656Z,2.75
2023-03-12T17:40:44.745Z,3.08
2023-03-12T17:43:12.993Z,3.03
2023-03-12T17:45:41.970Z,2.78
2023-03-12T17:48:11.217Z,3.70
2023-03-12T17:50:40.515Z,3.40
2023-03-12T17:53:08.670Z,3.22
2023-03-12T17:55:38.023Z,3.30
2023-03-12T17:58:07.085Z,4.22
2023-03-12T18:00:35.450Z,2.97
2023-03-12T18:03:03.495Z,3.08
2023-03-12T18:05:32.712Z,4.80
2023-03-12T18:08:00.612Z,4.03
2023-03-12T18:10:28.560Z,3.30
2023-03-12T18:12:56.381Z,3.42
2023-03-12T18:15:24.128Z,2.95
2023-03-12T18:17:53.263Z,3.20
2023-03-12T18:20:35.836Z,2.80
2023-03-12T18:23:06.804Z,3.08
2023-03-12T18:25:34.584Z,3.20
2023-03-12T18:28:02.339Z,3.90
2023-03-12T18:30:30.168Z,3.20
2023-03-12T18:32:58.807Z,3.42
2023-03-12T18:35:28.882Z,4.25
2023-03-12T18:37:56.788Z,4.18
2023-03-12T18:40:27.544Z,4.72
2023-03-12T18:42:58.569Z,4.65
2023-03-12T18:45:26.551Z,3.67
2023-03-12T18:47:54.262Z,3.08
2023-03-12T18:50:22.259Z,2.78
2023-03-12T18:52:50.171Z,3.08
2023-03-12T18:55:18.361Z,3.60
2023-03-12T18:57:47.658Z,3.70
2023-03-12T19:00:18.281Z,3.72
2023-03-12T19:02:47.986Z,3.65
2023-03-12T19:05:16.654Z,3.78
2023-03-12T19:07:44.557Z,3.88
2023-03-12T19:10:13.408Z,3.50
2023-03-12T19:12:54.906Z,4.18
2023-03-12T19:15:25.049Z,5.32
2023-03-12T19:17:54.104Z,4.15
2023-03-12T19:20:22.566Z,3.10
2023-03-12T19:22:50.336Z,3.75
2023-03-12T19:25:18.437Z,3.58
2023-03-12T19:27:46.226Z,3.28
2023-03-12T19:30:14.733Z,2.88
2023-03-12T19:32:44.784Z,3.33
2023-03-12T19:35:14.244Z,3.65
2023-03-12T19:37:42.301Z,3.67
2023-03-12T19:40:13.305Z,2.65
2023-03-12T19:42:41.436Z,2.78
2023-03-12T19:45:10.496Z,3.35
2023-03-12T19:47:38.352Z,3.42
2023-03-12T19:50:08.327Z,3.10
2023-03-12T19:52:36.126Z,3.25
2023-03-12T19:55:05.713Z,3.53
2023-03-12T19:57:33.697Z,5.15
2023-03-12T20:00:01.429Z,3.10
2023-03-12T20:02:29.593Z,3.13
2023-03-12T20:04:57.561Z,3.03
2023-03-12T20:07:26.950Z,3.17
2023-03-12T20:09:54.680Z,3.70
2023-03-12T20:12:22.388Z,2.97
2023-03-12T20:14:50.198Z,2.60
2023-03-12T20:17:18.040Z,3.55
2023-03-12T20:19:45.936Z,3.60
2023-03-12T20:22:13.901Z,3.28
2023-03-12T20:24:43.008Z,3.97
2023-03-12T20:27:10.807Z,5.47
2023-03-12T20:29:38.712Z,3.13
2023-03-12T20:32:06.576Z,3.30
2023-03-12T20:34:34.364Z,3.53
2023-03-12T20:37:02.098Z,3.30
2023-03-12T20:39:29.898Z,3.50
2023-03-12T20:41:58.978Z,3.38
2023-03-12T20:44:27.017Z,3.90
2023-03-12T20:46:54.735Z,3.35
2023-03-12T20:49:22.545Z,4.65
2023-03-12T20:51:50.247Z,4.15
2023-03-12T20:54:18.031Z,3.35
2023-03-12T20:56:45.780Z,3.65
2023-03-12T20:59:15.234Z,3.30
2023-03-12T21:01:43.068Z,4.05
2023-03-12T21:04:11.023Z,3.40
2023-03-12T21:06:38.823Z,3.97
2023-03-12T21:09:07.270Z,3.45
2023-03-12T21:11:35.821Z,3.50
2023-03-12T21:14:03.570Z,4.22
2023-03-12T21:16:32.813Z,3.15
2023-03-12T21:19:00.570Z,3.40
2023-03-12T21:21:28.818Z,4.05
2023-03-12T21:23:56.545Z,3.15
2023-03-12T21:26:24.348Z,4.20
2023-03-12T21:28:52.099Z,3.70
2023-03-12T21:31:19.941Z,3.60
2023-03-12T21:33:49.308Z,4.25
2023-03-12T21:36:17.378Z,5.38
2023-03-12T21:38:45.095Z,3.70
2023-03-12T21:41:14.760Z,4.20
2023-03-12T21:43:43.088Z,3.70
2023-03-12T21:46:12.457Z,4.03
2023-03-12T21:48:41.036Z,3.90
2023-03-12T21:51:11.946Z,3.58
2023-03-12T21:53:40.052Z,3.67
2023-03-12T21:56:09.348Z,3.40
2023-03-12T21:58:37.832Z,4.20
2023-03-12T22:01:08.707Z,4.35
2023-03-12T22:03:36.741Z,3.92
2023-03-12T22:06:06.091Z,3.65
2023-03-12T22:08:35.850Z,3.80
2023-03-12T22:11:04.287Z,4.25
2023-03-12T22:13:32.223Z,3.50
2023-03-12T22:16:01.602Z,3.58
2023-03-12T22:18:30.484Z,3.40
2023-03-12T22:21:00.734Z,4.05
2023-03-12T22:23:29.043Z,3.33
2023-03-12T22:26:01.375Z,3.10
2023-03-12T22:28:29.176Z,3.17
2023-03-12T22:31:00.596Z,3.80
2023-03-12T22:33:29.158Z,4.30
2023-03-12T22:35:57.467Z,4.43
2023-03-12T22:38:25.551Z,4.00
2023-03-12T22:40:55.690Z,3.28
2023-03-12T22:43:26.425Z,3.20
2023-03-12T22:45:54.587Z,3.22
2023-03-12T22:48:22.326Z,3.67
2023-03-12T22:50:54.334Z,4.10
2023-03-12T22:53:22.258Z,3.00
2023-03-12T22:55:57.929Z,4.28
2023-03-12T22:58:27.380Z,4.45
2023-03-12T23:00:59.974Z,4.30
2023-03-12T23:03:28.074Z,3.55
2023-03-12T23:05:55.873Z,2.88
2023-03-12T23:08:24.255Z,2.70
2023-03-12T23:10:53.384Z,3.80
2023-03-12T23:13:21.296Z,4.07
2023-03-12T23:15:50.782Z,3.08
2023-03-12T23:18:19.337Z,3.45
2023-03-12T23:20:47.147Z,2.95
2023-03-12T23:23:16.584Z,3.75
2023-03-12T23:25:44.362Z,3.47
2023-03-12T23:28:12.099Z,3.10
2023-03-12T23:30:39.813Z,2.90
2023-03-12T23:33:08.894Z,3.60
2023-03-12T23:35:36.670Z,2.95
2023-03-12T23:38:06.145Z,3.20
2023-03-12T23:40:33.907Z,3.83
2023-03-12T23:43:01.631Z,3.10
2023-03-12T23:45:29.369Z,2.90
2023-03-12T23:47:57.077Z,3.20
2023-03-12T23:50:26.223Z,2.60
2023-03-12T23:52:55.218Z,2.95
2023-03-12T23:55:22.966Z,3.10
2023-03-12T23:57:50.656Z,3.17
